createdAt,value
2023-05-17T00:01:39.922Z,101566.47
2023-05-17T00:04:06.703Z,101565.91
2023-05-17T00:06:35.491Z,101560.84
2023-05-17T00:09:02.569Z,101555.09
2023-05-17T00:11:30.431Z,101562.75
2023-05-17T00:13:57.647Z,101549.19
2023-05-17T00:16:24.356Z,101550.91
2023-05-17T00:18:51.600Z,101552.78
2023-05-17T00:21:18.882Z,101559.69
2023-05-17T00:23:47.951Z,101560.06
2023-05-17T00:26:15.262Z,101563.06
2023-05-17T00:28:42.438Z,101551.13
2023-05-17T00:31:10.009Z,101551.19
2023-05-17T00:33:37.315Z,101558.31
2023-05-17T00:36:05.667Z,101562.75
2023-05-17T00:38:32.557Z,101553.53
2023-05-17T00:41:01.627Z,101563.25
2023-05-17T00:43:29.419Z,101558.84
2023-05-17T00:45:57.053Z,101563.66
2023-05-17T00:48:25.457Z,101557.69
2023-05-17T00:50:53.218Z,101551.00
2023-05-17T00:53:21.761Z,101551.84
2023-05-17T00:55:49.720Z,101552.69
2023-05-17T00:58:18.715Z,101552.69
2023-05-17T01:00:47.257Z,101558.84
2023-05-17T01:03:14.381Z,101548.59
2023-05-17T01:05:42.043Z,101564.25
2023-05-17T01:08:09.489Z,101565.69
2023-05-17T01:10:44.835Z,101568.88
2023-05-17T01:13:18.958Z,101560.16
2023-05-17T01:15:57.291Z,101557.25
2023-05-17T01:18:35.318Z,101553.66
2023-05-17T01:21:12.970Z,101562.53
2023-05-17T01:23:54.787Z,101560.97
2023-05-17T01:26:36.460Z,101556.81
2023-05-17T01:29:06.065Z,101556.53
2023-05-17T01:31:34.308Z,101553.47
2023-05-17T01:34:01.569Z,101549.25
2023-05-17T01:36:29.296Z,101551.22
2023-05-17T01:38:56.768Z,101561.66
2023-05-17T01:41:29.682Z,101558.00
2023-05-17T01:44:07.813Z,101556.91
2023-05-17T01:46:40.945Z,101556.75
2023-05-17T01:49:13.752Z,101558.66
2023-05-17T01:51:48.848Z,101561.22
2023-05-17T01:54:20.457Z,101552.03
2023-05-17T01:56:56.460Z,101548.81
2023-05-17T01:59:26.286Z,101553.78
2023-05-17T02:01:56.375Z,101558.91
2023-05-17T02:04:26.318Z,101559.75
2023-05-17T02:06:54.190Z,101568.09
2023-05-17T02:09:21.578Z,101563.78
2023-05-17T02:11:49.281Z,101563.59
2023-05-17T02:14:16.767Z,101565.72
2023-05-17T02:16:45.615Z,101568.97
2023-05-17T02:19:12.397Z,101565.81
2023-05-17T02:21:39.356Z,101570.13
2023-05-17T02:24:06.692Z,101582.59
2023-05-17T02:26:33.923Z,101579.34
2023-05-17T02:29:01.115Z,101578.66
2023-05-17T02:31:28.660Z,101581.38
2023-05-17T02:33:58.415Z,101582.25
2023-05-17T02:36:25.693Z,101580.22
2023-05-17T02:38:53.053Z,101588.06
2023-05-17T02:41:20.370Z,101579.03
2023-05-17T02:43:47.771Z,101582.78
2023-05-17T02:46:15.071Z,101586.00
2023-05-17T02:48:43.220Z,101580.56
2023-05-17T02:51:11.536Z,101583.81
2023-05-17T02:53:38.785Z,101588.75
2023-05-17T02:56:06.689Z,101586.69
2023-05-17T02:58:34.167Z,101585.25
2023-05-17T03:01:01.115Z,101587.00
2023-05-17T03:03:28.481Z,101575.72
2023-05-17T03:05:59.884Z,101581.00
2023-05-17T03:08:29.515Z,101590.59
2023-05-17T03:10:56.349Z,101588.75
2023-05-17T03:13:23.965Z,101587.00
2023-05-17T03:15:51.392Z,101581.59
2023-05-17T03:18:18.859Z,101583.28
2023-05-17T03:20:46.330Z,101590.44
2023-05-17T03:23:13.719Z,101572.28
2023-05-17T03:25:42.923Z,101577.75
2023-05-17T03:28:10.159Z,101576.81
2023-05-17T03:30:39.686Z,101579.66
2023-05-17T03:33:07.246Z,101578.13
2023-05-17T03:35:34.826Z,101581.56
2023-05-17T03:38:02.364Z,101572.50
2023-05-17T03:40:29.570Z,101578.50
2023-05-17T03:42:58.226Z,101580.78
2023-05-17T03:45:25.957Z,101591.28
2023-05-17T03:47:53.445Z,101585.00
2023-05-17T03:50:20.338Z,101585.53
2023-05-17T03:52:47.554Z,101583.66
2023-05-17T03:55:14.721Z,101582.03
2023-05-17T03:57:42.038Z,101581.50
2023-05-17T04:00:12.093Z,101584.28
2023-05-17T04:02:39.520Z,101585.09
2023-05-17T04:05:07.654Z,101588.72
2023-05-17T04:07:35.268Z,101587.88
2023-05-17T04:10:02.578Z,101590.28
2023-05-17T04:12:29.264Z,101592.13
2023-05-17T04:14:56.748Z,101591.50
2023-05-17T04:17:25.174Z,101594.44
2023-05-17T04:19:52.603Z,101587.78
2023-05-17T04:22:20.598Z,101584.38
2023-05-17T04:24:48.209Z,101575.47
2023-05-17T04:27:14.862Z,101590.09
2023-05-17T04:29:42.030Z,101592.81
2023-05-17T04:32:09.376Z,101589.91
2023-05-17T04:34:37.678Z,101592.09
2023-05-17T04:37:07.370Z,101590.03
2023-05-17T04:39:34.719Z,101591.50
2023-05-17T04:42:01.532Z,101586.00
2023-05-17T04:44:29.335Z,101594.94
2023-05-17T04:46:57.094Z,101601.97
2023-05-17T04:49:24.372Z,101595.47
2023-05-17T04:51:53.205Z,101594.00
2023-05-17T04:54:20.565Z,101594.41
2023-05-17T04:56:47.502Z,101593.63
2023-05-17T04:59:15.541Z,101595.16
2023-05-17T05:01:42.877Z,101598.03
2023-05-17T05:04:10.556Z,101594.91
2023-05-17T05:06:37.526Z,101606.94
2023-05-17T05:09:06.715Z,101609.66
2023-05-17T05:11:34.399Z,101611.78
2023-05-17T05:14:02.223Z,101596.13
2023-05-17T05:16:29.361Z,101603.00
2023-05-17T05:18:56.893Z,101621.22
2023-05-17T05:21:24.281Z,101619.22
2023-05-17T05:23:51.757Z,101626.28
2023-05-17T05:26:20.207Z,101629.75
2023-05-17T05:28:47.968Z,101626.69
2023-05-17T05:31:15.242Z,101624.69
2023-05-17T05:33:42.545Z,101621.75
2023-05-17T05:36:10.378Z,101629.72
2023-05-17T05:38:37.660Z,101634.25
2023-05-17T05:41:04.935Z,101638.97
2023-05-17T05:43:34.261Z,101645.19
2023-05-17T05:46:01.886Z,101646.78
2023-05-17T05:48:28.747Z,101660.72
2023-05-17T05:50:56.447Z,101660.41
2023-05-17T05:53:23.901Z,101664.56
2023-05-17T05:55:51.858Z,101669.53
2023-05-17T05:58:19.270Z,101673.47
2023-05-17T06:00:49.337Z,101676.75
2023-05-17T06:03:16.087Z,101679.19
2023-05-17T06:05:42.923Z,101678.22
2023-05-17T06:08:10.774Z,101679.69
2023-05-17T06:10:38.076Z,101684.47
2023-05-17T06:13:05.888Z,101696.53
2023-05-17T06:15:34.382Z,101696.25
2023-05-17T06:18:03.354Z,101701.91
2023-05-17T06:20:31.196Z,101706.69
2023-05-17T06:22:58.710Z,101714.00
2023-05-17T06:25:26.168Z,101718.78
2023-05-17T06:27:53.816Z,101721.06
2023-05-17T06:30:21.192Z,101725.13
2023-05-17T06:32:48.585Z,101731.28
2023-05-17T06:35:17.506Z,101730.22
2023-05-17T06:37:44.739Z,101733.19
2023-05-17T06:40:16.450Z,101735.31
2023-05-17T06:42:44.955Z,101729.38
2023-05-17T06:45:12.644Z,101727.78
2023-05-17T06:47:40.141Z,101732.97
2023-05-17T06:50:09.589Z,101735.13
2023-05-17T06:52:38.361Z,101738.72
2023-05-17T06:55:06.504Z,101734.09
2023-05-17T06:57:34.152Z,101729.94
2023-05-17T07:00:01.404Z,101738.28
2023-05-17T07:02:28.743Z,101729.31
2023-05-17T07:04:56.367Z,101737.09
2023-05-17T07:07:23.633Z,101739.50
2023-05-17T07:09:52.945Z,101742.09
2023-05-17T07:12:20.349Z,101745.03
2023-05-17T07:14:47.877Z,101735.78
2023-05-17T07:17:15.129Z,101738.19
2023-05-17T07:19:42.803Z,101730.34
2023-05-17T07:22:10.204Z,101736.03
2023-05-17T07:24:37.498Z,101733.28
2023-05-17T07:27:06.686Z,101737.00
2023-05-17T07:29:34.551Z,101739.47
2023-05-17T07:32:01.898Z,101750.78
2023-05-17T07:34:30.699Z,101741.38
2023-05-17T07:36:57.400Z,101745.16
2023-05-17T07:39:24.624Z,101751.63
2023-05-17T07:41:52.723Z,101760.13
2023-05-17T07:44:21.386Z,101755.59
2023-05-17T07:46:49.213Z,101748.41
2023-05-17T07:49:16.324Z,101752.84
2023-05-17T07:51:43.711Z,101756.97
2023-05-17T07:54:13.257Z,101759.75
2023-05-17T07:56:40.828Z,101751.63
2023-05-17T10:06:08.770Z,101757.16
2023-05-17T10:08:37.856Z,101746.53
2023-05-17T10:11:09.146Z,101754.97
2023-05-17T10:13:44.812Z,101751.94
2023-05-17T10:16:13.403Z,101756.22
2023-05-17T10:18:40.879Z,101751.84
2023-05-17T10:21:11.392Z,101748.78
2023-05-17T10:23:41.276Z,101748.59
2023-05-17T10:26:09.568Z,101738.66
2023-05-17T10:28:37.415Z,101735.00
2023-05-17T10:31:05.344Z,101735.72
2023-05-17T10:33:33.014Z,101726.19
2023-05-17T10:36:02.632Z,101725.53
2023-05-17T10:38:41.824Z,101730.22
2023-05-17T10:41:11.304Z,101724.47
2023-05-17T10:43:41.392Z,101730.00
2023-05-17T10:46:15.749Z,101734.41
2023-05-17T10:48:44.325Z,101729.44
2023-05-17T10:51:11.867Z,101729.88
2023-05-17T10:54:20.386Z,101732.34
2023-05-17T10:56:50.208Z,101738.09
2023-05-17T10:59:19.757Z,101734.13
2023-05-17T11:01:51.962Z,101732.47
2023-05-17T11:04:24.428Z,101716.97
2023-05-17T11:07:16.111Z,101722.94
2023-05-17T11:09:45.925Z,101719.47
2023-05-17T11:12:14.417Z,101718.84
2023-05-17T11:14:48.376Z,101715.63
2023-05-17T11:17:17.185Z,101718.94
2023-05-17T11:19:56.107Z,101710.78
2023-05-17T11:22:23.997Z,101711.84
2023-05-17T11:24:57.280Z,101716.09
2023-05-17T11:27:24.663Z,101715.88
2023-05-17T11:29:51.372Z,101698.84
2023-05-17T11:32:18.752Z,101706.09
2023-05-17T11:34:52.697Z,101713.19
2023-05-17T11:37:26.816Z,101707.41
2023-05-17T11:40:07.130Z,101713.09
2023-05-17T11:42:35.124Z,101717.91
2023-05-17T11:45:02.286Z,101725.13
2023-05-17T11:47:29.851Z,101723.31
2023-05-17T11:50:01.942Z,101723.72
2023-05-17T11:52:29.898Z,101716.25
2023-05-17T11:54:58.808Z,101721.44
2023-05-17T11:57:32.608Z,101719.41
2023-05-17T12:00:00.458Z,101710.72
2023-05-17T12:02:29.417Z,101708.94
2023-05-17T12:04:57.273Z,101707.34
2023-05-17T12:07:25.789Z,101702.16
2023-05-17T12:09:53.061Z,101712.88
2023-05-17T12:12:21.170Z,101708.53
2023-05-17T12:14:50.004Z,101708.88
2023-05-17T12:17:25.070Z,101709.84
2023-05-17T12:19:55.466Z,101704.31
2023-05-17T12:22:23.424Z,101700.66
2023-05-17T12:24:50.777Z,101711.84
2023-05-17T12:27:26.108Z,101708.16
2023-05-17T12:29:55.230Z,101706.56
2023-05-17T12:32:22.348Z,101710.38
2023-05-17T12:34:49.749Z,101713.50
2023-05-17T12:37:17.467Z,101712.56
2023-05-17T12:39:45.050Z,101713.44
2023-05-17T12:42:11.917Z,101712.13
2023-05-17T12:44:39.953Z,101717.88
2023-05-17T12:47:10.351Z,101713.91
2023-05-17T12:49:52.192Z,101720.63
2023-05-17T12:52:19.359Z,101724.78
2023-05-17T12:54:46.309Z,101725.97
2023-05-17T12:57:14.213Z,101722.25
2023-05-17T12:59:49.080Z,101719.47
2023-05-17T13:02:19.968Z,101716.06
2023-05-17T13:04:46.846Z,101714.72
2023-05-17T13:07:22.719Z,101713.53
2023-05-17T13:09:49.561Z,101709.47
2023-05-17T13:12:20.669Z,101716.16
2023-05-17T13:14:50.089Z,101703.34
2023-05-17T13:17:20.170Z,101716.97
2023-05-17T13:19:47.680Z,101709.03
2023-05-17T13:22:15.439Z,101712.56
2023-05-17T13:24:43.533Z,101712.13
2023-05-17T13:27:10.862Z,101720.00
2023-05-17T13:29:41.976Z,101714.22
2023-05-17T13:32:11.012Z,101720.78
2023-05-17T13:34:40.201Z,101716.59
2023-05-17T13:37:11.084Z,101712.34
2023-05-17T13:39:39.478Z,101714.22
2023-05-17T13:42:07.107Z,101708.81
2023-05-17T13:44:34.443Z,101706.69
2023-05-17T13:47:01.389Z,101709.66
2023-05-17T13:49:28.765Z,101717.66
2023-05-17T13:51:57.072Z,101707.38
2023-05-17T13:54:23.937Z,101711.06
2023-05-17T13:56:51.401Z,101713.63
2023-05-17T13:59:18.888Z,101706.91
2023-05-17T14:01:45.955Z,101710.31
2023-05-17T14:04:13.551Z,101705.97
2023-05-17T14:06:42.541Z,101706.41
2023-05-17T14:09:11.788Z,101702.84
2023-05-17T14:11:39.883Z,101702.91
2023-05-17T14:14:07.351Z,101707.22
2023-05-17T14:16:34.926Z,101699.75
2023-05-17T14:19:04.569Z,101701.56
2023-05-17T14:21:32.163Z,101693.88
2023-05-17T14:23:59.133Z,101686.59
2023-05-17T14:26:27.352Z,101687.44
2023-05-17T14:28:54.614Z,101684.81
2023-05-17T14:31:21.574Z,101679.22
2023-05-17T14:33:48.902Z,101677.19
2023-05-17T14:36:16.072Z,101681.19
2023-05-17T14:38:42.830Z,101685.94
2023-05-17T14:41:10.152Z,101677.31
2023-05-17T14:43:38.452Z,101677.81
2023-05-17T14:46:05.432Z,101673.56
2023-05-17T14:48:32.972Z,101677.13
2023-05-17T14:51:00.472Z,101679.88
2023-05-17T14:53:28.005Z,101678.44
2023-05-17T14:55:55.522Z,101672.81
2023-05-17T14:58:22.220Z,101677.84
2023-05-17T15:00:52.235Z,101672.59
2023-05-17T15:03:22.385Z,101665.25
2023-05-17T15:05:54.649Z,101668.97
2023-05-17T15:08:22.635Z,101678.63
2023-05-17T15:10:50.280Z,101675.03
2023-05-17T15:13:17.326Z,101666.50
2023-05-17T15:15:44.769Z,101673.56
2023-05-17T15:18:13.377Z,101671.19
2023-05-17T15:20:41.324Z,101655.28
2023-05-17T15:23:08.474Z,101651.13
2023-05-17T15:25:35.614Z,101657.06
2023-05-17T15:28:02.467Z,101645.34
2023-05-17T15:30:30.051Z,101650.72
2023-05-17T15:32:59.068Z,101654.16
2023-05-17T15:35:28.085Z,101649.47
2023-05-17T15:37:58.490Z,101648.84
2023-05-17T15:40:25.814Z,101649.13
2023-05-17T15:42:53.249Z,101650.63
2023-05-17T15:45:20.678Z,101651.94
2023-05-17T15:47:47.475Z,101650.41
2023-05-17T15:50:15.066Z,101650.19
2023-05-17T15:52:44.082Z,101646.41
2023-05-17T15:55:11.332Z,101649.78
2023-05-17T15:57:38.993Z,101644.06
2023-05-17T16:00:07.408Z,101644.69
2023-05-17T16:02:34.433Z,101639.03
2023-05-17T16:05:03.859Z,101637.03
2023-05-17T16:07:31.105Z,101639.00
2023-05-17T16:09:59.448Z,101642.59
2023-05-17T16:12:26.219Z,101636.69
2023-05-17T16:14:53.668Z,101638.69
2023-05-17T16:17:21.805Z,101632.53
2023-05-17T16:19:49.537Z,101636.47
2023-05-17T16:22:16.451Z,101629.34
2023-05-17T16:24:43.111Z,101621.44
2023-05-17T16:27:11.326Z,101626.13
2023-05-17T16:29:38.085Z,101618.09
2023-05-17T16:32:05.864Z,101619.31
2023-05-17T16:34:33.192Z,101609.00
2023-05-17T16:36:59.853Z,101617.19
2023-05-17T16:39:26.651Z,101609.78
2023-05-17T16:41:53.792Z,101617.94
2023-05-17T16:44:22.239Z,101612.41
2023-05-17T16:46:49.212Z,101610.69
2023-05-17T16:49:16.106Z,101613.09
2023-05-17T16:51:42.911Z,101610.19
2023-05-17T16:54:09.803Z,101613.44
2023-05-17T16:56:36.543Z,101603.38
2023-05-17T16:59:03.380Z,101608.50
2023-05-17T17:01:31.646Z,101620.72
2023-05-17T17:03:58.544Z,101613.59
2023-05-17T17:06:25.336Z,101613.03
2023-05-17T17:08:52.595Z,101607.84
2023-05-17T17:11:20.109Z,101615.31
2023-05-17T17:13:46.896Z,101611.75
2023-05-17T17:16:14.105Z,101612.00
2023-05-17T17:18:42.377Z,101608.38
2023-05-17T17:21:09.196Z,101611.56
2023-05-17T17:23:36.329Z,101608.22
2023-05-17T17:26:03.405Z,101615.13
2023-05-17T17:28:30.138Z,101614.84
2023-05-17T17:30:56.960Z,101615.13
2023-05-17T17:33:23.846Z,101617.22
2023-05-17T17:35:52.176Z,101616.38
2023-05-17T17:38:19.361Z,101619.31
2023-05-17T17:40:46.699Z,101618.25
2023-05-17T17:43:14.591Z,101613.66
2023-05-17T17:45:42.092Z,101613.03
2023-05-17T17:48:09.532Z,101609.94
2023-05-17T17:50:37.141Z,101621.78
2023-05-17T17:53:05.930Z,101622.19
2023-05-17T17:55:33.137Z,101620.88
2023-05-17T17:58:00.405Z,101623.81
2023-05-17T18:00:27.445Z,101624.00
2023-05-17T18:02:55.859Z,101618.63
2023-05-17T18:05:23.352Z,101620.84
2023-05-17T18:07:50.668Z,101616.84
2023-05-17T18:10:20.648Z,101614.00
2023-05-17T18:12:49.591Z,101614.97
2023-05-17T18:15:18.377Z,101613.03
2023-05-17T18:17:45.608Z,101610.97
2023-05-17T18:20:12.537Z,101613.44
2023-05-17T18:22:39.380Z,101613.34
2023-05-17T18:25:06.967Z,101611.03
2023-05-17T18:27:35.242Z,101616.16
2023-05-17T18:30:02.301Z,101617.56
2023-05-17T18:32:29.528Z,101614.84
2023-05-17T18:34:56.553Z,101605.09
2023-05-17T18:37:23.415Z,101614.00
2023-05-17T18:39:50.719Z,101625.47
2023-05-17T18:42:17.958Z,101618.53
2023-05-17T18:44:47.129Z,101624.91
2023-05-17T18:47:14.609Z,101617.91
2023-05-17T18:49:42.000Z,101615.34
2023-05-17T18:52:09.419Z,101614.63
2023-05-17T18:54:36.123Z,101622.25
2023-05-17T18:57:03.049Z,101619.66
2023-05-17T18:59:30.272Z,101616.91
2023-05-17T19:01:58.470Z,101615.44
2023-05-17T19:04:25.363Z,101620.72
2023-05-17T19:06:52.406Z,101615.59
2023-05-17T19:09:19.258Z,101618.81
2023-05-17T19:11:46.009Z,101620.97
2023-05-17T19:14:13.081Z,101617.63
2023-05-17T19:16:39.883Z,101620.41
2023-05-17T19:19:08.375Z,101621.25
2023-05-17T19:21:35.478Z,101621.66
2023-05-17T19:24:02.306Z,101620.81
2023-05-17T19:26:29.173Z,101616.34
2023-05-17T19:28:56.351Z,101626.16
2023-05-17T19:31:23.694Z,101612.72
2023-05-17T19:33:50.979Z,101616.19
2023-05-17T19:36:19.832Z,101615.56
2023-05-17T19:38:46.620Z,101619.38
2023-05-17T19:41:13.921Z,101617.91
2023-05-17T19:43:41.987Z,101613.44
2023-05-17T19:46:09.497Z,101613.44
2023-05-17T19:48:36.935Z,101621.75
2023-05-17T19:51:04.627Z,101610.69
2023-05-17T19:53:44.182Z,101611.13
2023-05-17T19:56:18.694Z,101608.00
2023-05-17T19:58:46.318Z,101614.16
2023-05-17T20:01:13.453Z,101610.56
2023-05-17T20:03:41.404Z,101615.88
2023-05-17T20:06:08.700Z,101608.88
2023-05-17T20:08:37.047Z,101607.66
2023-05-17T20:11:04.089Z,101607.88
2023-05-17T20:13:30.900Z,101602.78
2023-05-17T20:15:57.719Z,101608.31
2023-05-17T20:18:24.614Z,101606.66
2023-05-17T20:20:51.433Z,101611.31
2023-05-17T20:23:18.237Z,101604.31
2023-05-17T20:25:46.534Z,101605.78
2023-05-17T20:28:13.418Z,101600.94
2023-05-17T20:30:43.838Z,101607.31
2023-05-17T20:33:10.985Z,101602.22
2023-05-17T20:35:37.797Z,101597.31
2023-05-17T20:38:04.446Z,101604.31
2023-05-17T20:40:31.692Z,101602.88
2023-05-17T20:43:00.066Z,101608.38
2023-05-17T20:45:26.786Z,101604.16
2023-05-17T20:47:54.237Z,101593.09
2023-05-17T20:50:21.748Z,101592.47
2023-05-17T20:52:48.997Z,101602.22
2023-05-17T20:55:15.794Z,101596.94
2023-05-17T20:57:42.641Z,101595.00
2023-05-17T21:00:12.632Z,101593.94
2023-05-17T21:02:40.016Z,101594.38
2023-05-17T21:05:07.057Z,101592.88
2023-05-17T21:07:33.898Z,101591.00
2023-05-17T21:10:01.388Z,101593.34
2023-05-17T21:12:28.184Z,101593.13
2023-05-17T21:15:14.399Z,101603.28
2023-05-17T21:17:43.065Z,101598.19
2023-05-17T21:20:11.597Z,101607.28
2023-05-17T21:22:38.365Z,101597.78
2023-05-17T21:25:07.005Z,101606.06
2023-05-17T21:27:34.304Z,101614.72
2023-05-17T21:30:01.470Z,101612.34
2023-05-17T21:32:28.465Z,101608.13
2023-05-17T21:35:45.432Z,101602.38
2023-05-17T21:39:06.313Z,101606.41
2023-05-17T21:41:34.809Z,101598.97
2023-05-17T21:44:02.101Z,101597.47
2023-05-17T21:46:29.020Z,101593.44
2023-05-17T21:48:55.919Z,101604.47
2023-05-17T21:51:22.684Z,101598.94
2023-05-17T21:53:49.654Z,101596.19
2023-05-17T21:56:16.577Z,101598.50
2023-05-17T21:58:44.658Z,101602.09
2023-05-17T22:01:12.352Z,101593.44
2023-05-17T22:03:39.446Z,101591.28
2023-05-17T22:06:07.016Z,101592.53
2023-05-17T22:08:34.159Z,101598.66
2023-05-17T22:11:01.500Z,101594.66
2023-05-17T22:13:28.277Z,101590.00
2023-05-17T22:15:56.491Z,101590.13
2023-05-17T22:18:24.286Z,101591.53
2023-05-17T22:20:51.533Z,101594.69
2023-05-17T22:23:19.232Z,101594.16
2023-05-17T22:25:46.600Z,101590.13
2023-05-17T22:28:13.967Z,101598.00
2023-05-17T22:30:40.791Z,101597.00
2023-05-17T22:33:09.992Z,101605.69
2023-05-17T22:35:37.346Z,101597.41
2023-05-17T22:38:04.903Z,101589.59
2023-05-17T22:40:32.594Z,101596.78
2023-05-17T23:54:32.177Z,101571.41
2023-05-17T23:57:00.892Z,101572.84
2023-05-17T23:59:28.914Z,101568.19
